createdAt,value
2022-11-29T00:02:27.998Z,46.60
2022-11-29T00:05:31.438Z,49.60
2022-11-29T00:08:34.667Z,50.00
2022-11-29T00:11:57.978Z,49.80
2022-11-29T00:15:01.210Z,47.00
2022-11-29T00:18:04.604Z,49.00
2022-11-29T00:21:08.867Z,49.80
2022-11-29T00:24:12.126Z,48.00
2022-11-29T00:27:16.731Z,51.00
2022-11-29T00:30:20.510Z,51.40
2022-11-29T00:33:23.781Z,47.00
2022-11-29T00:36:27.655Z,51.00
2022-11-29T00:39:30.900Z,50.00
2022-11-29T00:42:35.462Z,48.00
2022-11-29T00:45:38.670Z,47.40
2022-11-29T00:48:41.975Z,49.00
2022-11-29T00:51:45.519Z,48.00
2022-11-29T00:54:48.693Z,50.80
2022-11-29T00:57:53.839Z,51.00
2022-11-29T01:00:57.418Z,50.00
2022-11-29T01:04:02.048Z,48.00
2022-11-29T01:07:05.200Z,49.60
2022-11-29T01:10:09.506Z,49.00
2022-11-29T01:13:15.292Z,50.25
2022-11-29T01:16:18.875Z,47.40
2022-11-29T01:19:22.216Z,50.00
2022-11-29T01:22:25.478Z,47.80
2022-11-29T01:25:29.473Z,50.00
2022-11-29T01:28:35.217Z,49.80
2022-11-29T01:31:38.573Z,49.00
2022-11-29T01:34:42.343Z,47.80
2022-11-29T01:37:45.880Z,46.80
2022-11-29T01:40:58.839Z,48.25
2022-11-29T01:44:06.392Z,48.50
2022-11-29T01:47:11.820Z,49.75
2022-11-29T01:50:15.506Z,47.60
2022-11-29T01:53:19.120Z,49.80
2022-11-29T01:56:23.600Z,49.00
2022-11-29T01:59:31.207Z,48.00
2022-11-29T02:02:39.626Z,48.00
2022-11-29T02:05:46.645Z,49.75
2022-11-29T02:08:50.155Z,51.00
2022-11-29T02:12:14.527Z,49.00
2022-11-29T02:15:30.715Z,53.60
2022-11-29T02:18:48.209Z,50.20
2022-11-29T02:21:57.542Z,49.00
2022-11-29T02:25:30.864Z,49.00
2022-11-29T02:29:06.626Z,49.40
2022-11-29T02:32:55.366Z,51.80
2022-11-29T02:36:35.493Z,52.00
2022-11-29T02:40:12.675Z,49.50
2022-11-29T02:43:37.922Z,50.25
2022-11-29T02:46:57.213Z,49.00
2022-11-29T02:50:18.590Z,46.60
2022-11-29T02:53:31.209Z,48.00
2022-11-29T02:56:44.504Z,48.50
2022-11-29T02:59:59.545Z,49.00
2022-11-29T03:03:10.541Z,49.00
2022-11-29T03:06:24.136Z,47.00
2022-11-29T03:09:37.805Z,45.25
2022-11-29T03:12:45.743Z,46.80
2022-11-29T03:15:58.833Z,46.00
2022-11-29T03:19:12.159Z,46.00
2022-11-29T03:22:30.241Z,46.40
2022-11-29T03:25:40.216Z,45.00
2022-11-29T03:28:50.305Z,46.00
2022-11-29T03:32:02.023Z,44.00
2022-11-29T03:35:12.917Z,45.25
2022-11-29T03:38:27.373Z,46.00
2022-11-29T03:41:39.115Z,46.00
2022-11-29T03:44:53.001Z,44.60
2022-11-29T03:48:02.947Z,43.80
2022-11-29T03:51:12.496Z,46.00
2022-11-29T03:54:23.366Z,45.75
2022-11-29T03:57:32.844Z,44.00
2022-11-29T04:00:50.211Z,46.00
2022-11-29T04:04:21.408Z,43.00
2022-11-29T04:07:36.630Z,44.00
2022-11-29T04:11:02.337Z,41.80
2022-11-29T04:14:31.581Z,41.00
2022-11-29T04:18:09.484Z,43.20
2022-11-29T04:21:56.318Z,40.00
2022-11-29T04:25:35.047Z,40.20
2022-11-29T04:29:14.279Z,44.80
2022-11-29T04:32:51.427Z,42.40
2022-11-29T04:36:27.399Z,44.00
2022-11-29T04:39:47.469Z,45.75
2022-11-29T04:43:16.745Z,44.80
2022-11-29T04:46:41.205Z,42.40
2022-11-29T04:50:06.325Z,42.80
2022-11-29T04:53:31.400Z,45.20
2022-11-29T04:56:41.971Z,46.00
2022-11-29T04:59:53.017Z,43.40
2022-11-29T05:02:58.848Z,43.00
2022-11-29T05:06:14.232Z,44.20
2022-11-29T05:09:28.801Z,43.25
2022-11-29T05:12:39.863Z,44.00
2022-11-29T05:16:13.291Z,41.50
2022-11-29T05:19:30.633Z,43.50
2022-11-29T05:22:47.440Z,42.00
2022-11-29T05:25:57.265Z,45.00
2022-11-29T05:29:06.292Z,43.50
2022-11-29T05:32:28.619Z,43.00
2022-11-29T05:35:51.971Z,39.60
2022-11-29T05:39:28.312Z,43.60
2022-11-29T05:42:43.757Z,41.60
2022-11-29T05:45:54.120Z,44.40
2022-11-29T05:49:08.414Z,39.00
2022-11-29T05:52:25.783Z,39.50
2022-11-29T05:55:40.406Z,42.00
2022-11-29T05:58:51.530Z,40.60
2022-11-29T06:02:06.191Z,38.75
2022-11-29T06:05:15.856Z,43.40
2022-11-29T06:08:29.455Z,41.80
2022-11-29T06:11:39.936Z,45.00
2022-11-29T06:15:03.485Z,41.00
2022-11-29T06:18:23.732Z,42.00
2022-11-29T06:21:37.714Z,40.00
2022-11-29T06:24:56.703Z,43.80
2022-11-29T06:28:18.081Z,40.00
2022-11-29T06:31:26.710Z,42.80
2022-11-29T06:34:37.706Z,45.00
2022-11-29T06:37:44.693Z,42.00
2022-11-29T06:40:48.383Z,38.40
2022-11-29T06:43:54.766Z,39.75
2022-11-29T06:47:07.245Z,39.00
2022-11-29T06:50:27.935Z,40.00
2022-11-29T06:53:42.010Z,40.80
2022-11-29T06:56:51.659Z,42.60
2022-11-29T07:00:06.629Z,37.00
2022-11-29T07:03:42.771Z,38.00
2022-11-29T07:06:46.526Z,38.00
2022-11-29T07:09:52.347Z,42.00
2022-11-29T07:12:56.091Z,39.00
2022-11-29T07:16:08.395Z,41.20
2022-11-29T07:19:21.761Z,37.60
2022-11-29T07:22:44.377Z,41.60
2022-11-29T07:26:01.793Z,39.60
2022-11-29T07:29:22.487Z,39.00
2022-11-29T07:32:42.077Z,38.20
2022-11-29T07:35:52.988Z,41.80
2022-11-29T07:39:07.470Z,41.40
2022-11-29T07:42:19.766Z,39.80
2022-11-29T07:45:28.892Z,41.50
2022-11-29T07:48:33.501Z,39.80
2022-11-29T07:51:36.701Z,38.20
2022-11-29T07:54:40.761Z,43.00
2022-11-29T07:57:43.995Z,42.75
2022-11-29T08:00:47.408Z,39.80
2022-11-29T08:03:52.458Z,42.33
2022-11-29T08:06:58.786Z,43.50
2022-11-29T08:10:02.114Z,45.60
2022-11-29T08:13:05.274Z,42.60
2022-11-29T08:16:09.078Z,44.25
2022-11-29T08:19:13.735Z,41.00
2022-11-29T08:22:16.999Z,42.20
2022-11-29T08:25:20.158Z,45.50
2022-11-29T08:28:23.503Z,42.00
2022-11-29T08:31:27.131Z,42.00
2022-11-29T08:34:32.211Z,40.20
2022-11-29T08:37:35.662Z,40.00
2022-11-29T08:40:39.093Z,40.50
2022-11-29T08:43:42.714Z,39.25
2022-11-29T08:47:03.914Z,39.00
2022-11-29T08:50:14.570Z,34.75
2022-11-29T08:53:35.338Z,39.00
2022-11-29T09:00:02.206Z,39.00
2022-11-29T09:03:24.445Z,42.80
2022-11-29T09:06:30.908Z,41.33
2022-11-29T09:09:34.175Z,41.50
2022-11-29T09:12:37.985Z,42.60
2022-11-29T09:15:43.700Z,36.20
2022-11-29T09:18:51.883Z,38.80
2022-11-29T09:21:56.976Z,40.50
2022-11-29T09:25:00.197Z,41.00
2022-11-29T09:28:03.794Z,40.40
2022-11-29T09:31:08.036Z,40.25
2022-11-29T09:34:14.146Z,41.00
2022-11-29T09:37:18.782Z,37.75
2022-11-29T09:40:32.001Z,39.00
2022-11-29T09:43:47.460Z,39.20
2022-11-29T09:47:01.556Z,39.80
2022-11-29T09:50:18.885Z,35.60
2022-11-29T09:53:38.040Z,35.80
2022-11-29T09:56:44.792Z,37.80
2022-11-29T09:59:52.790Z,35.00
2022-11-29T10:03:02.351Z,42.00
2022-11-29T10:06:12.941Z,40.00
2022-11-29T10:09:23.677Z,42.00
2022-11-29T10:12:35.148Z,37.20
2022-11-29T10:15:44.259Z,41.80
2022-11-29T10:18:51.069Z,41.00
2022-11-29T10:22:00.380Z,38.00
2022-11-29T10:25:10.450Z,39.50
2022-11-29T10:28:16.965Z,37.80
2022-11-29T10:31:25.205Z,37.50
2022-11-29T10:34:32.639Z,39.00
2022-11-29T10:37:35.926Z,39.25
2022-11-29T10:40:44.174Z,42.80
2022-11-29T10:43:47.777Z,38.60
2022-11-29T10:46:51.860Z,39.00
2022-11-29T10:49:55.617Z,40.80
2022-11-29T10:53:05.553Z,35.00
2022-11-29T10:56:15.786Z,37.50
2022-11-29T10:59:23.782Z,33.60
2022-11-29T11:02:27.851Z,36.00
2022-11-29T11:05:31.469Z,37.00
2022-11-29T11:08:37.052Z,38.25
2022-11-29T11:11:45.323Z,34.00
2022-11-29T11:14:49.153Z,35.00
2022-11-29T11:18:00.222Z,34.20
2022-11-29T11:21:04.433Z,38.00
2022-11-29T11:24:24.231Z,39.00
2022-11-29T11:27:35.092Z,40.80
2022-11-29T11:30:38.530Z,40.40
2022-11-29T11:33:43.775Z,38.60
2022-11-29T11:36:47.093Z,38.60
2022-11-29T11:39:52.465Z,38.25
2022-11-29T11:42:59.148Z,32.00
2022-11-29T11:46:02.576Z,37.50
2022-11-29T11:49:14.080Z,31.20
2022-11-29T11:52:22.870Z,39.00
2022-11-29T11:55:34.515Z,34.80
2022-11-29T11:58:46.437Z,41.00
2022-11-29T12:01:50.199Z,36.20
2022-11-29T12:04:56.196Z,36.00
2022-11-29T12:08:10.278Z,37.80
2022-11-29T12:11:17.044Z,37.80
2022-11-29T12:14:29.644Z,33.40
2022-11-29T12:17:37.755Z,35.40
2022-11-29T12:20:46.713Z,34.40
2022-11-29T12:23:54.946Z,35.00
2022-11-29T12:27:04.577Z,28.50
2022-11-29T12:30:14.656Z,35.00
2022-11-29T12:33:31.734Z,38.60
2022-11-29T12:36:45.203Z,39.40
2022-11-29T12:39:58.824Z,35.60
2022-11-29T12:43:16.341Z,35.50
2022-11-29T12:46:26.084Z,35.75
2022-11-29T12:49:40.827Z,36.00
2022-11-29T12:52:53.766Z,35.60
2022-11-29T12:56:09.011Z,36.00
2022-11-29T12:59:23.780Z,35.60
2022-11-29T13:02:44.252Z,37.00
2022-11-29T13:05:59.498Z,35.00
2022-11-29T13:09:23.749Z,33.00
2022-11-29T13:12:37.890Z,29.50
2022-11-29T13:15:49.941Z,33.00
2022-11-29T13:19:01.101Z,31.00
2022-11-29T13:22:16.446Z,33.40
2022-11-29T13:25:25.665Z,33.20
2022-11-29T13:28:33.464Z,36.00
2022-11-29T13:31:39.802Z,34.40
2022-11-29T13:34:50.950Z,33.75
2022-11-29T13:37:58.497Z,34.80
2022-11-29T13:41:11.885Z,36.20
2022-11-29T13:44:24.685Z,34.60
2022-11-29T13:47:28.346Z,35.60
2022-11-29T13:50:44.637Z,34.00
2022-11-29T13:53:49.355Z,35.00
2022-11-29T13:57:03.285Z,35.00
2022-11-29T14:00:08.280Z,37.20
2022-11-29T14:03:32.625Z,34.60
2022-11-29T14:06:39.307Z,34.60
2022-11-29T14:10:01.523Z,36.00
2022-11-29T14:13:06.645Z,35.00
2022-11-29T14:16:19.351Z,28.80
2022-11-29T14:19:32.854Z,35.00
2022-11-29T14:23:15.480Z,32.00
2022-11-29T14:26:29.193Z,32.50
2022-11-29T14:29:55.064Z,33.00
2022-11-29T14:33:05.554Z,32.00
2022-11-29T14:36:26.923Z,32.00
2022-11-29T14:39:46.908Z,33.00
2022-11-29T14:42:52.845Z,29.20
2022-11-29T14:46:09.694Z,30.00
2022-11-29T14:49:23.672Z,31.00
2022-11-29T14:52:33.216Z,25.00
2022-11-29T14:55:39.207Z,32.00
2022-11-29T14:58:42.420Z,32.00
2022-11-29T15:01:47.423Z,32.00
2022-11-29T15:04:53.641Z,36.40
2022-11-29T15:08:07.893Z,38.50
2022-11-29T15:11:19.441Z,35.20
2022-11-29T15:14:33.244Z,37.80
2022-11-29T15:17:49.655Z,34.40
2022-11-29T15:21:08.641Z,33.25
2022-11-29T15:24:14.642Z,35.00
2022-11-29T15:27:19.344Z,36.40
2022-11-29T15:30:31.277Z,34.67
2022-11-29T15:33:37.393Z,40.00
2022-11-29T15:36:44.908Z,37.00
2022-11-29T15:39:48.267Z,36.00
2022-11-29T15:42:58.008Z,39.20
2022-11-29T15:46:01.632Z,38.00
2022-11-29T15:49:18.321Z,35.00
2022-11-29T15:52:28.214Z,38.33
2022-11-29T15:55:32.660Z,36.00
2022-11-29T15:58:38.457Z,40.00
2022-11-29T16:01:44.397Z,38.00
2022-11-29T16:04:49.992Z,35.00
2022-11-29T16:07:57.167Z,36.20
2022-11-29T16:11:01.434Z,35.50
2022-11-29T16:14:17.556Z,39.20
2022-11-29T16:17:22.121Z,39.20
2022-11-29T16:20:27.011Z,38.00
2022-11-29T16:23:34.423Z,36.00
2022-11-29T16:26:42.037Z,38.20
2022-11-29T16:29:47.586Z,40.00
2022-11-29T16:32:54.611Z,35.75
2022-11-29T16:36:12.815Z,35.75
2022-11-29T16:39:23.946Z,35.00
2022-11-29T16:42:28.745Z,34.00
2022-11-29T16:45:36.080Z,39.00
2022-11-29T16:48:39.461Z,38.60
2022-11-29T16:51:48.388Z,42.00
2022-11-29T16:54:52.822Z,40.00
2022-11-29T16:57:56.238Z,39.00
2022-11-29T17:01:00.896Z,38.60
2022-11-29T17:04:04.194Z,35.20
2022-11-29T17:07:10.047Z,37.00
2022-11-29T17:10:18.237Z,40.00
2022-11-29T17:13:21.474Z,39.50
2022-11-29T17:16:26.471Z,38.00
2022-11-29T17:19:30.352Z,36.80
2022-11-29T17:22:33.590Z,42.40
2022-11-29T17:25:36.891Z,39.75
2022-11-29T17:28:41.308Z,39.00
2022-11-29T17:31:47.357Z,38.20
2022-11-29T17:34:51.197Z,39.25
2022-11-29T17:37:54.695Z,31.25
2022-11-29T17:40:57.922Z,31.50
2022-11-29T17:44:01.903Z,38.75
2022-11-29T17:47:06.632Z,32.20
2022-11-29T17:50:10.767Z,36.00
2022-11-29T17:53:14.032Z,38.20
2022-11-29T17:56:19.102Z,39.60
2022-11-29T17:59:22.331Z,38.00
2022-11-29T18:02:27.071Z,36.00
2022-11-29T18:05:34.767Z,36.00
2022-11-29T18:08:39.678Z,36.00
2022-11-29T18:11:48.541Z,36.00
2022-11-29T18:14:52.451Z,35.25
2022-11-29T18:17:57.078Z,37.20
2022-11-29T18:21:00.526Z,40.60
2022-11-29T18:24:05.374Z,37.40
2022-11-29T18:27:08.794Z,38.00
2022-11-29T18:30:12.490Z,41.00
2022-11-29T18:33:17.398Z,33.00
2022-11-29T18:36:23.043Z,42.00
2022-11-29T18:39:26.521Z,34.00
2022-11-29T18:42:29.812Z,40.00
2022-11-29T18:45:36.036Z,42.00
2022-11-29T18:48:41.104Z,37.40
2022-11-29T18:51:45.827Z,41.00
2022-11-29T18:54:49.438Z,38.80
2022-11-29T18:57:54.021Z,41.00
2022-11-29T19:01:04.306Z,35.50
2022-11-29T19:04:10.554Z,40.00
2022-11-29T19:07:13.882Z,40.00
2022-11-29T19:10:17.302Z,36.20
2022-11-29T19:13:20.615Z,41.00
2022-11-29T19:16:25.636Z,39.00
2022-11-29T19:19:32.105Z,40.60
2022-11-29T19:22:35.476Z,38.80
2022-11-29T19:25:38.701Z,40.00
2022-11-29T19:28:43.550Z,40.00
2022-11-29T19:31:47.087Z,39.75
2022-11-29T19:34:52.855Z,42.40
2022-11-29T19:37:56.162Z,41.40
2022-11-29T19:40:59.443Z,39.00
2022-11-29T19:44:04.485Z,43.00
2022-11-29T19:47:07.651Z,42.00
2022-11-29T19:50:12.574Z,44.00
2022-11-29T19:53:17.550Z,44.00
2022-11-29T19:56:21.511Z,44.00
2022-11-29T19:59:24.796Z,42.00
2022-11-29T20:02:28.162Z,43.60
2022-11-29T20:05:32.869Z,44.00
2022-11-29T20:08:36.384Z,42.40
2022-11-29T20:11:40.040Z,46.00
2022-11-29T20:14:43.354Z,43.75
2022-11-29T20:17:46.561Z,44.60
2022-11-29T20:20:51.239Z,42.00
2022-11-29T20:23:57.152Z,44.00
2022-11-29T20:27:00.349Z,44.00
2022-11-29T20:30:03.586Z,45.00
2022-11-29T20:33:06.978Z,42.60
2022-11-29T20:36:26.721Z,43.60
2022-11-29T20:39:37.751Z,41.60
2022-11-29T20:43:04.486Z,46.00
2022-11-29T20:46:08.875Z,46.00
2022-11-29T20:49:15.242Z,47.80
2022-11-29T20:52:37.708Z,43.50
2022-11-29T20:55:47.462Z,43.00
2022-11-29T20:58:51.825Z,45.25
2022-11-29T21:01:56.221Z,46.00
2022-11-29T21:04:59.554Z,44.00
2022-11-29T21:08:04.430Z,45.00
2022-11-29T21:11:10.617Z,45.25
2022-11-29T21:14:14.625Z,43.40
2022-11-29T21:17:19.152Z,42.40
2022-11-29T21:20:24.673Z,43.00
2022-11-29T21:23:42.877Z,47.50
2022-11-29T21:26:51.892Z,45.25
2022-11-29T21:29:55.998Z,45.80
2022-11-29T21:32:59.996Z,44.00
2022-11-29T21:36:05.500Z,48.00
2022-11-29T21:39:16.245Z,46.40
2022-11-29T21:42:19.809Z,46.00
2022-11-29T21:45:23.001Z,47.25
2022-11-29T21:48:38.149Z,45.75
2022-11-29T21:51:41.464Z,45.00
2022-11-29T21:54:46.295Z,45.00
2022-11-29T21:57:49.683Z,48.00
2022-11-29T22:00:53.124Z,45.75
2022-11-29T22:03:57.653Z,44.00
2022-11-29T22:07:00.854Z,43.80
2022-11-29T22:10:13.158Z,44.00
2022-11-29T22:13:17.167Z,46.00
2022-11-29T22:16:20.436Z,46.50
2022-11-29T22:19:25.800Z,47.00
2022-11-29T22:22:29.025Z,39.25
2022-11-29T22:25:33.861Z,47.75
2022-11-29T22:28:37.036Z,44.25
2022-11-29T22:31:40.391Z,45.25
2022-11-29T22:34:43.773Z,44.00
2022-11-29T22:37:47.186Z,45.25
2022-11-29T22:40:52.026Z,43.75
2022-11-29T22:43:55.514Z,46.20
2022-11-29T22:46:59.085Z,44.00
2022-11-29T22:50:02.577Z,46.00
2022-11-29T22:53:05.874Z,47.60
2022-11-29T22:56:12.621Z,45.00
2022-11-29T22:59:15.850Z,46.00
2022-11-29T23:02:19.255Z,43.40
2022-11-29T23:05:22.836Z,48.00
2022-11-29T23:08:26.069Z,45.00
2022-11-29T23:11:32.133Z,45.00
2022-11-29T23:14:37.153Z,44.00
2022-11-29T23:17:40.407Z,45.00
2022-11-29T23:20:43.775Z,46.25
2022-11-29T23:23:52.943Z,46.80
2022-11-29T23:27:00.785Z,44.00
2022-11-29T23:30:04.207Z,44.50
2022-11-29T23:33:07.380Z,45.00
2022-11-29T23:36:12.299Z,42.00
2022-11-29T23:39:15.479Z,46.60
2022-11-29T23:42:21.151Z,43.60
2022-11-29T23:45:24.369Z,44.00
2022-11-29T23:48:27.712Z,44.60
2022-11-29T23:51:31.263Z,47.80
2022-11-29T23:54:34.937Z,44.25
2022-11-29T23:57:39.617Z,46.00
